Time;durP1;ratioP1;P1;durP2;ratioP2;P2;SDS_P1;SDS_P2;PMS_P1;PMS_P2;Temp;Humidity;BMP_temperature;BMP_pressure;BME280_temperature;BME280_humidity;BME280_pressure;Samples;Min_cycle;Max_cycle;Signal;HPM_P1;HPM_P2
2022/10/18 00:00:41;;;;;;;3.30;2.60;;;14.20;85.40;;;;;;5075585;28;20309;-60
2022/10/18 00:03:06;;;;;;;5.78;2.70;;;14.20;85.30;;;;;;5077452;28;20032;-59
2022/10/18 00:05:32;;;;;;;4.90;2.80;;;14.20;85.20;;;;;;5074052;28;20036;-62
2022/10/18 00:07:57;;;;;;;4.43;2.58;;;14.30;85.00;;;;;;5073808;28;20526;-61
2022/10/18 00:10:23;;;;;;;3.72;2.63;;;14.20;84.80;;;;;;5075570;28;20094;-60
2022/10/18 00:12:49;;;;;;;5.63;2.45;;;14.30;84.70;;;;;;5073543;28;20202;-62
2022/10/18 00:15:16;;;;;;;6.35;3.00;;;14.30;84.60;;;;;;5075256;28;20060;-61
2022/10/18 00:17:42;;;;;;;5.90;3.20;;;14.30;84.50;;;;;;5074451;28;20035;-60
2022/10/18 00:20:08;;;;;;;3.50;3.00;;;14.30;84.50;;;;;;5074110;28;20123;-62
2022/10/18 00:22:36;;;;;;;4.78;3.05;;;14.30;84.50;;;;;;5076247;28;20116;-62
2022/10/18 00:25:02;;;;;;;4.43;3.08;;;14.20;84.60;;;;;;5075467;28;20049;-62
2022/10/18 00:27:29;;;;;;;5.07;3.55;;;14.30;85.00;;;;;;5073579;28;20032;-61
2022/10/18 00:29:54;;;;;;;7.68;3.72;;;14.30;85.50;;;;;;5074907;28;20028;-62
2022/10/18 00:32:20;;;;;;;5.38;3.90;;;14.30;85.60;;;;;;5075933;28;20070;-62
2022/10/18 00:34:46;;;;;;;8.35;4.40;;;14.40;85.90;;;;;;5073884;28;20036;-61
2022/10/18 00:37:11;;;;;;;4.00;3.65;;;14.40;86.10;;;;;;5074879;28;20036;-62
2022/10/18 00:39:37;;;;;;;9.57;4.57;;;14.50;86.20;;;;;;5073408;28;20056;-60
2022/10/18 00:42:03;;;;;;;5.60;4.15;;;14.50;86.20;;;;;;5076122;28;20037;-60
2022/10/18 00:44:28;;;;;;;7.13;4.10;;;14.50;86.30;;;;;;5072988;28;20071;-61
2022/10/18 00:47:03;;;;;;;5.10;3.85;;;14.60;86.40;;;;;;5075007;28;20040;-62
2022/10/18 00:49:36;;;;;;;5.55;4.25;;;14.60;86.40;;;;;;5075067;28;20032;-61
2022/10/18 00:52:02;;;;;;;4.25;3.85;;;14.60;86.20;;;;;;5066992;28;20068;-62
2022/10/18 00:54:29;;;;;;;6.10;4.20;;;14.70;86.00;;;;;;5074789;28;20122;-62
2022/10/18 00:56:55;;;;;;;6.57;4.35;;;14.70;85.90;;;;;;5074434;28;20032;-62
2022/10/18 00:59:22;;;;;;;6.22;4.18;;;14.70;85.70;;;;;;5075425;28;20043;-63
2022/10/18 01:01:47;;;;;;;7.25;4.85;;;14.70;85.60;;;;;;5075831;28;20093;-62
2022/10/18 01:04:15;;;;;;;5.32;3.78;;;14.70;85.60;;;;;;5073133;28;20044;-61
2022/10/18 01:07:00;;;;;;;4.95;4.22;;;14.70;85.50;;;;;;5073781;28;20458;-62
2022/10/18 01:09:55;;;;;;;6.22;4.30;;;14.80;85.90;;;;;;5073814;28;20403;-62
2022/10/18 01:12:48;;;;;;;8.45;4.32;;;14.80;85.50;;;;;;5074323;28;20055;-60
2022/10/18 01:15:44;;;;;;;5.30;3.65;;;14.80;86.00;;;;;;5077567;28;20405;-61
2022/10/18 01:18:33;;;;;;;5.15;3.70;;;14.70;85.90;;;;;;5078762;28;20569;-62
2022/10/18 01:21:02;;;;;;;3.90;3.28;;;14.80;85.50;;;;;;5076885;28;20078;-62
2022/10/18 01:23:39;;;;;;;6.68;3.05;;;14.70;85.40;;;;;;5078795;28;20579;-62
2022/10/18 01:26:18;;;;;;;4.32;3.53;;;14.80;85.30;;;;;;5075655;28;20048;-61
2022/10/18 01:29:08;;;;;;;3.50;3.20;;;14.80;85.20;;;;;;5078068;28;20032;-62
2022/10/18 01:31:42;;;;;;;3.88;3.17;;;14.80;85.50;;;;;;5079756;28;20040;-62
2022/10/18 01:34:11;;;;;;;7.22;3.20;;;14.70;85.10;;;;;;5078239;28;20032;-62
2022/10/18 01:36:41;;;;;;;5.32;3.10;;;14.70;85.20;;;;;;5076913;28;20382;-60
2022/10/18 01:39:20;;;;;;;9.98;3.20;;;14.70;85.30;;;;;;5076455;28;20505;-62
2022/10/18 01:41:47;;;;;;;3.30;3.00;;;14.70;85.50;;;;;;5077187;28;20051;-62
2022/10/18 01:44:18;;;;;;;4.68;2.90;;;14.70;85.40;;;;;;5077323;28;20043;-60
2022/10/18 01:46:46;;;;;;;3.00;2.70;;;14.70;85.70;;;;;;5076955;28;20573;-62
2022/10/18 01:49:11;;;;;;;4.20;2.80;;;14.70;85.80;;;;;;5076063;28;20048;-62
2022/10/18 01:51:37;;;;;;;4.03;2.97;;;14.70;85.70;;;;;;5076552;28;20092;-60
2022/10/18 01:54:03;;;;;;;6.00;2.80;;;14.70;85.50;;;;;;5078521;28;20036;-61
2022/10/18 01:57:02;;;;;;;3.95;2.70;;;14.70;85.50;;;;;;5077627;28;20533;-59
2022/10/18 01:59:58;;;;;;;3.63;2.80;;;14.80;86.00;;;;;;5078057;28;20029;-62
2022/10/18 02:02:29;;;;;;;2.92;2.72;;;14.80;85.90;;;;;;5079525;28;20575;-62
2022/10/18 02:05:04;;;;;;;4.40;3.47;;;14.80;85.40;;;;;;5078405;28;20119;-61
2022/10/18 02:07:39;;;;;;;4.18;3.10;;;14.80;86.50;;;;;;5077102;28;21024;-61
2022/10/18 02:10:11;;;;;;;5.70;3.70;;;14.80;86.00;;;;;;5076970;28;20563;-62
2022/10/18 02:12:41;;;;;;;5.68;3.85;;;14.80;86.00;;;;;;5073371;28;20174;-61
2022/10/18 02:15:11;;;;;;;9.75;4.10;;;14.80;86.10;;;;;;5077299;28;20032;-62
2022/10/18 02:17:39;;;;;;;5.35;4.38;;;14.80;86.10;;;;;;5077413;28;20040;-61
2022/10/18 02:20:07;;;;;;;6.93;4.15;;;14.90;86.30;;;;;;5077969;28;20032;-62
2022/10/18 02:22:35;;;;;;;6.18;4.03;;;14.90;86.40;;;;;;5075269;28;20039;-61
2022/10/18 02:25:09;;;;;;;5.53;3.88;;;14.90;86.70;;;;;;5073690;28;20044;-62
2022/10/18 02:27:35;;;;;;;8.05;4.05;;;14.90;87.10;;;;;;5075959;28;20151;-61
2022/10/18 02:30:01;;;;;;;4.25;3.88;;;14.90;87.10;;;;;;5077222;28;20032;-61
2022/10/18 02:32:37;;;;;;;4.80;4.10;;;14.90;87.20;;;;;;5075879;28;20043;-61
2022/10/18 02:35:08;;;;;;;4.80;3.88;;;14.90;87.40;;;;;;5078136;28;20041;-61
2022/10/18 02:37:37;;;;;;;3.92;3.38;;;14.90;87.10;;;;;;5078686;28;20185;-61
2022/10/18 02:40:05;;;;;;;4.20;3.70;;;15.00;87.00;;;;;;5076141;28;20040;-61
2022/10/18 02:42:55;;;;;;;5.68;3.53;;;15.00;86.90;;;;;;5076756;28;20063;-61
2022/10/18 02:45:22;;;;;;;4.78;3.38;;;15.00;87.30;;;;;;5075313;28;20630;-61
2022/10/18 02:47:47;;;;;;;5.32;3.80;;;15.00;86.60;;;;;;5076890;28;20415;-61
2022/10/18 02:50:13;;;;;;;3.85;3.22;;;15.00;86.60;;;;;;5074664;28;20282;-60
2022/10/18 02:52:39;;;;;;;3.85;3.47;;;15.10;86.60;;;;;;5077142;28;20052;-62
2022/10/18 02:55:08;;;;;;;4.20;3.13;;;15.10;86.60;;;;;;5075773;28;20032;-62
2022/10/18 02:57:33;;;;;;;5.90;3.70;;;15.10;86.40;;;;;;5077241;28;20507;-62
2022/10/18 02:59:59;;;;;;;6.57;3.55;;;15.10;86.40;;;;;;5075732;28;20143;-62
2022/10/18 03:02:25;;;;;;;4.68;3.70;;;15.10;86.50;;;;;;5075803;28;20055;-61
2022/10/18 03:04:50;;;;;;;4.60;3.63;;;15.20;86.60;;;;;;5077825;28;20063;-62
2022/10/18 03:07:16;;;;;;;4.07;3.33;;;15.20;86.80;;;;;;5074968;28;20526;-61
2022/10/18 03:09:42;;;;;;;4.05;3.65;;;15.20;86.60;;;;;;5077501;28;20033;-61
2022/10/18 03:12:08;;;;;;;4.03;3.70;;;15.20;86.70;;;;;;5073364;28;20104;-61
2022/10/18 03:14:33;;;;;;;6.15;4.03;;;15.20;86.60;;;;;;5077125;28;20037;-61
2022/10/18 03:16:59;;;;;;;6.43;3.53;;;15.20;86.60;;;;;;5075694;28;20036;-61
2022/10/18 03:19:25;;;;;;;6.82;3.40;;;15.20;86.60;;;;;;5075749;28;20032;-62
2022/10/18 03:21:50;;;;;;;7.68;3.50;;;15.20;87.40;;;;;;5077965;28;20359;-62
2022/10/18 03:24:16;;;;;;;5.60;3.63;;;15.30;86.60;;;;;;5076275;28;20396;-62
2022/10/18 03:26:41;;;;;;;3.83;3.50;;;15.20;86.40;;;;;;5073854;28;20064;-61
2022/10/18 03:29:08;;;;;;;4.57;3.25;;;15.20;86.40;;;;;;5076433;28;20148;-61
2022/10/18 03:31:34;;;;;;;5.65;3.78;;;15.30;86.50;;;;;;5075689;28;20048;-62
2022/10/18 03:34:00;;;;;;;6.15;4.00;;;15.30;86.40;;;;;;5077049;28;20572;-61
2022/10/18 03:36:25;;;;;;;6.10;4.07;;;15.30;86.50;;;;;;5073476;28;20044;-62
2022/10/18 03:38:51;;;;;;;6.18;4.88;;;15.30;86.60;;;;;;5075817;28;20419;-62
2022/10/18 03:41:16;;;;;;;6.25;4.65;;;15.30;86.60;;;;;;5075421;28;20158;-61
2022/10/18 03:43:42;;;;;;;5.82;4.75;;;15.30;86.70;;;;;;5077068;28;20056;-62
2022/10/18 03:46:08;;;;;;;6.22;5.00;;;15.40;86.70;;;;;;5076039;28;20032;-61
2022/10/18 03:48:33;;;;;;;5.80;5.25;;;15.40;86.90;;;;;;5074688;28;20115;-61
2022/10/18 03:50:59;;;;;;;7.82;5.15;;;15.40;86.90;;;;;;5075915;28;20040;-61
2022/10/18 03:53:24;;;;;;;7.43;5.28;;;15.40;87.00;;;;;;5074546;28;20040;-61
2022/10/18 03:55:54;;;;;;;5.85;5.20;;;15.40;87.00;;;;;;5076000;28;20093;-61
2022/10/18 03:58:20;;;;;;;6.95;5.63;;;15.50;87.10;;;;;;5076532;28;20047;-60
2022/10/18 04:00:50;;;;;;;6.40;5.20;;;15.50;86.90;;;;;;5076399;28;20032;-62
2022/10/18 04:03:17;;;;;;;8.10;5.28;;;15.50;87.10;;;;;;5074979;28;20517;-61
2022/10/18 04:05:43;;;;;;;10.40;5.90;;;15.50;86.90;;;;;;5078046;28;20044;-61
2022/10/18 04:08:09;;;;;;;8.52;5.65;;;15.50;86.90;;;;;;5074089;28;20036;-61
2022/10/18 04:10:37;;;;;;;7.63;5.72;;;15.60;87.10;;;;;;5078611;28;20088;-62
2022/10/18 04:13:03;;;;;;;7.32;5.70;;;15.50;87.20;;;;;;5073777;28;20115;-62
2022/10/18 04:15:28;;;;;;;8.55;5.80;;;15.60;87.30;;;;;;5074870;28;20547;-60
2022/10/18 04:17:55;;;;;;;8.18;5.40;;;15.60;87.30;;;;;;5074741;28;20036;-62
2022/10/18 04:20:21;;;;;;;8.35;5.40;;;15.70;87.40;;;;;;5074324;27;20402;-62
2022/10/18 04:22:47;;;;;;;25.65;14.70;;;15.60;87.30;;;;;;5074718;28;20043;-62
2022/10/18 04:25:13;;;;;;;18.73;12.43;;;15.70;87.20;;;;;;5073558;28;20032;-61
2022/10/18 04:27:38;;;;;;;22.50;13.48;;;15.70;87.30;;;;;;5073802;28;20036;-61
2022/10/18 04:30:05;;;;;;;15.00;10.73;;;15.70;87.30;;;;;;5072428;28;20032;-62
2022/10/18 04:32:30;;;;;;;14.50;9.80;;;15.70;87.10;;;;;;5064017;28;20044;-62
2022/10/18 04:34:56;;;;;;;13.32;8.80;;;15.70;87.00;;;;;;5071884;28;20051;-61
2022/10/18 04:37:22;;;;;;;12.77;8.38;;;15.70;87.10;;;;;;5073124;28;20047;-60
2022/10/18 04:39:47;;;;;;;10.48;8.15;;;15.80;87.10;;;;;;5074781;28;20482;-62
2022/10/18 04:42:13;;;;;;;16.08;11.18;;;15.70;87.30;;;;;;5076012;28;20036;-62
2022/10/18 04:44:39;;;;;;;18.33;12.40;;;15.70;87.30;;;;;;5074640;28;20127;-60
2022/10/18 04:47:05;;;;;;;17.27;11.30;;;15.70;87.30;;;;;;5073006;28;20568;-62
2022/10/18 04:49:31;;;;;;;11.77;9.05;;;15.70;87.30;;;;;;5075869;28;20471;-62
2022/10/18 04:51:56;;;;;;;12.43;8.20;;;15.80;87.30;;;;;;5075144;28;20352;-61
2022/10/18 04:54:22;;;;;;;12.05;7.75;;;15.80;87.20;;;;;;5076559;28;20456;-60
2022/10/18 04:56:48;;;;;;;7.25;6.43;;;15.80;87.30;;;;;;5073419;28;20479;-63
2022/10/18 04:59:13;;;;;;;9.48;6.05;;;15.70;87.30;;;;;;5074913;28;20039;-61
2022/10/18 05:01:39;;;;;;;7.63;5.72;;;15.70;87.30;;;;;;5074376;28;20148;-63
2022/10/18 05:04:04;;;;;;;6.63;5.70;;;15.70;87.30;;;;;;5074655;28;20111;-63
2022/10/18 05:06:30;;;;;;;7.07;5.55;;;15.70;87.30;;;;;;5073171;28;20178;-62
2022/10/18 05:08:55;;;;;;;8.10;6.07;;;15.70;87.20;;;;;;5075562;28;20044;-62
2022/10/18 05:11:21;;;;;;;7.80;6.50;;;15.70;87.10;;;;;;5076371;28;20616;-62
2022/10/18 05:13:46;;;;;;;9.10;6.05;;;15.70;86.90;;;;;;5074920;28;20044;-63
2022/10/18 05:16:12;;;;;;;7.18;5.43;;;15.70;86.90;;;;;;5075437;28;20445;-63
2022/10/18 05:18:38;;;;;;;6.28;5.38;;;15.70;86.90;;;;;;5074992;28;20124;-61
2022/10/18 05:21:04;;;;;;;7.30;5.30;;;15.70;86.90;;;;;;5075009;28;20045;-62
2022/10/18 05:23:29;;;;;;;7.65;5.38;;;15.70;86.90;;;;;;5074947;28;20044;-63
2022/10/18 05:26:01;;;;;;;7.00;5.57;;;15.70;86.80;;;;;;5073914;28;20514;-60
2022/10/18 05:28:26;;;;;;;7.40;5.95;;;15.70;86.90;;;;;;5072621;28;20036;-62
2022/10/18 05:30:52;;;;;;;8.90;5.53;;;15.70;86.90;;;;;;5072290;28;20488;-62
2022/10/18 05:33:17;;;;;;;7.50;5.15;;;15.60;86.90;;;;;;5075733;28;20032;-62
2022/10/18 05:35:43;;;;;;;6.45;5.28;;;15.60;87.00;;;;;;5075584;28;20040;-62
2022/10/18 05:38:08;;;;;;;6.80;6.10;;;15.60;87.10;;;;;;5074124;28;20043;-62
2022/10/18 05:40:38;;;;;;;8.13;5.57;;;15.60;87.10;;;;;;5076357;28;20488;-62
2022/10/18 05:43:03;;;;;;;6.15;5.22;;;15.60;87.20;;;;;;5074339;28;20039;-62
2022/10/18 05:45:29;;;;;;;9.25;5.75;;;15.60;87.10;;;;;;5072586;28;20032;-61
2022/10/18 05:47:54;;;;;;;8.68;5.68;;;15.60;87.00;;;;;;5074094;28;20456;-62
2022/10/18 05:50:20;;;;;;;8.43;5.50;;;15.60;86.90;;;;;;5074462;28;20626;-63
2022/10/18 05:52:46;;;;;;;8.07;5.82;;;15.60;86.90;;;;;;5073571;27;20052;-61
2022/10/18 05:55:11;;;;;;;8.32;5.80;;;15.60;86.90;;;;;;5073839;28;20488;-62
2022/10/18 05:57:37;;;;;;;8.75;6.47;;;15.60;86.90;;;;;;5073642;28;20404;-62
2022/10/18 06:00:03;;;;;;;10.45;6.53;;;15.60;87.00;;;;;;5079102;28;20042;-61
2022/10/18 06:02:29;;;;;;;11.75;7.15;;;15.70;87.90;;;;;;5077150;28;20059;-60
2022/10/18 06:04:54;;;;;;;11.32;7.78;;;15.70;87.10;;;;;;5079038;28;20511;-62
2022/10/18 06:07:20;;;;;;;11.13;8.10;;;15.70;87.30;;;;;;5078956;28;20346;-62
2022/10/18 06:09:46;;;;;;;10.02;7.88;;;15.70;87.30;;;;;;5075409;28;20051;-62
2022/10/18 06:12:11;;;;;;;10.85;7.78;;;15.70;87.50;;;;;;5076435;28;20123;-62
2022/10/18 06:14:37;;;;;;;9.77;8.02;;;15.70;87.60;;;;;;5078149;28;20495;-61
2022/10/18 06:17:03;;;;;;;13.93;8.50;;;15.70;87.60;;;;;;5078691;28;20121;-63
2022/10/18 06:19:28;;;;;;;9.35;8.25;;;15.80;87.70;;;;;;5077920;28;20028;-61
2022/10/18 06:21:54;;;;;;;12.25;8.25;;;15.80;87.80;;;;;;5076681;28;20036;-61
2022/10/18 06:24:20;;;;;;;11.05;8.32;;;15.80;87.80;;;;;;5077383;28;20036;-61
2022/10/18 06:26:46;;;;;;;14.75;8.02;;;15.80;87.80;;;;;;5079206;28;20064;-62
2022/10/18 06:29:12;;;;;;;10.32;9.23;;;15.80;87.90;;;;;;5075524;28;20124;-60
2022/10/18 06:31:38;;;;;;;13.38;9.35;;;15.90;87.90;;;;;;5078013;28;20079;-62
2022/10/18 06:34:03;;;;;;;11.40;9.15;;;15.90;87.80;;;;;;5080470;28;20487;-62
2022/10/18 06:36:29;;;;;;;12.00;9.57;;;15.90;87.80;;;;;;5077971;28;20172;-62
2022/10/18 06:38:55;;;;;;;10.32;8.45;;;15.90;87.80;;;;;;5078480;28;20032;-61
2022/10/18 06:41:21;;;;;;;10.90;8.85;;;16.00;88.60;;;;;;5079050;28;20036;-62
2022/10/18 06:43:48;;;;;;;9.50;8.27;;;16.00;87.70;;;;;;5078429;28;20040;-62
2022/10/18 06:46:14;;;;;;;10.20;8.35;;;16.00;87.80;;;;;;5076568;28;20725;-61
2022/10/18 06:48:40;;;;;;;10.55;7.40;;;16.00;87.80;;;;;;5077402;28;20044;-62
2022/10/18 06:51:06;;;;;;;10.80;8.05;;;16.00;87.80;;;;;;5079838;28;20139;-62
2022/10/18 06:53:35;;;;;;;13.57;8.32;;;16.00;87.90;;;;;;5076118;28;20043;-62
2022/10/18 06:56:02;;;;;;;9.02;8.10;;;16.00;88.00;;;;;;5077234;28;20051;-62
2022/10/18 06:58:28;;;;;;;15.07;8.63;;;16.10;88.00;;;;;;5077090;28;20152;-62
2022/10/18 07:00:54;;;;;;;9.00;7.78;;;16.10;88.00;;;;;;5080402;28;20750;-63
2022/10/18 07:03:20;;;;;;;11.68;8.43;;;16.00;87.90;;;;;;5077294;28;20040;-63
2022/10/18 07:05:47;;;;;;;13.20;8.60;;;16.10;88.00;;;;;;5077537;28;21810;-62
2022/10/18 07:08:12;;;;;;;13.82;8.52;;;16.10;88.10;;;;;;5075285;28;20060;-62
2022/10/18 07:10:38;;;;;;;12.90;8.30;;;16.10;88.00;;;;;;5076194;28;20096;-61
2022/10/18 07:13:03;;;;;;;13.05;7.97;;;16.20;88.10;;;;;;5079664;28;20111;-61
2022/10/18 07:15:29;;;;;;;10.40;8.07;;;16.20;89.00;;;;;;5078812;28;20056;-62
2022/10/18 07:17:54;;;;;;;12.60;7.88;;;16.20;88.20;;;;;;5076858;28;20032;-62
2022/10/18 07:20:20;;;;;;;11.10;7.78;;;16.30;88.30;;;;;;5075637;28;20032;-61
2022/10/18 07:22:46;;;;;;;10.15;7.38;;;16.30;88.10;;;;;;5075195;28;20048;-63
2022/10/18 07:25:11;;;;;;;10.15;7.72;;;16.40;88.20;;;;;;5077440;28;20545;-61
2022/10/18 07:27:39;;;;;;;8.88;6.97;;;16.40;88.10;;;;;;5074703;28;20599;-62
2022/10/18 07:30:06;;;;;;;12.23;7.25;;;16.50;88.10;;;;;;5076439;28;20039;-62
2022/10/18 07:32:31;;;;;;;9.15;7.03;;;16.50;88.20;;;;;;5077518;28;20105;-62
2022/10/18 07:34:57;;;;;;;13.00;7.13;;;16.50;88.10;;;;;;5078780;28;20461;-61
2022/10/18 07:37:22;;;;;;;9.65;7.03;;;16.60;88.10;;;;;;5078873;28;20440;-62
2022/10/18 07:39:48;;;;;;;10.88;6.60;;;16.60;88.00;;;;;;5079782;28;20447;-62
2022/10/18 07:42:13;;;;;;;6.90;6.20;;;16.70;88.00;;;;;;5077491;28;20512;-63
2022/10/18 07:44:39;;;;;;;10.73;6.70;;;16.80;88.00;;;;;;5079449;28;20032;-63
2022/10/18 07:47:05;;;;;;;9.15;6.30;;;16.80;87.70;;;;;;5080009;28;20040;-63
2022/10/18 07:49:30;;;;;;;7.68;6.32;;;16.80;87.40;;;;;;5078930;28;20054;-63
2022/10/18 07:51:56;;;;;;;9.32;6.40;;;16.90;87.40;;;;;;5079410;28;20043;-62
2022/10/18 07:54:21;;;;;;;8.32;6.07;;;16.90;87.20;;;;;;5076180;28;20127;-62
2022/10/18 07:56:47;;;;;;;6.15;5.55;;;17.00;87.10;;;;;;5075187;27;20066;-62
2022/10/18 07:59:13;;;;;;;6.78;5.40;;;17.10;87.00;;;;;;5076420;28;20062;-63
2022/10/18 08:01:38;;;;;;;6.57;5.78;;;17.10;86.60;;;;;;5073004;28;20043;-61
2022/10/18 08:04:04;;;;;;;9.43;5.63;;;17.10;86.40;;;;;;5076489;28;20122;-61
2022/10/18 08:06:30;;;;;;;7.93;5.25;;;17.20;86.20;;;;;;5075374;28;20043;-62
2022/10/18 08:08:55;;;;;;;6.65;4.95;;;17.20;86.10;;;;;;5077437;28;20050;-62
2022/10/18 08:11:23;;;;;;;7.72;4.85;;;17.30;86.00;;;;;;5072118;28;20587;-63
2022/10/18 08:13:50;;;;;;;5.43;4.45;;;17.40;85.60;;;;;;5075911;28;20032;-62
2022/10/18 08:16:18;;;;;;;7.43;4.63;;;17.50;85.10;;;;;;5077970;28;20449;-63
2022/10/18 08:18:44;;;;;;;10.68;4.63;;;17.50;84.50;;;;;;5076341;28;20400;-63
2022/10/18 08:21:12;;;;;;;5.30;4.05;;;17.50;84.10;;;;;;5074334;28;20085;-62
2022/10/18 08:23:38;;;;;;;6.90;5.00;;;17.60;84.10;;;;;;5074291;28;20036;-63
2022/10/18 08:26:08;;;;;;;5.55;4.30;;;17.60;84.00;;;;;;5075983;28;20439;-61
2022/10/18 08:28:35;;;;;;;5.38;4.28;;;17.70;83.60;;;;;;5072959;28;20044;-62
2022/10/18 08:31:02;;;;;;;4.85;4.43;;;17.70;83.70;;;;;;5076958;28;20580;-62
2022/10/18 08:33:28;;;;;;;6.90;4.43;;;17.80;83.80;;;;;;5076136;28;20050;-63
2022/10/18 08:35:58;;;;;;;5.10;4.00;;;17.90;83.40;;;;;;5074947;28;20412;-63
2022/10/18 08:38:24;;;;;;;6.68;4.55;;;17.90;83.20;;;;;;5076739;28;20051;-62
2022/10/18 08:40:50;;;;;;;4.88;4.35;;;17.90;82.90;;;;;;5075113;28;20040;-62
2022/10/18 08:43:29;;;;;;;8.02;5.82;;;18.00;82.80;;;;;;5075772;28;20527;-63
2022/10/18 08:45:55;;;;;;;9.50;4.70;;;18.10;82.30;;;;;;5075352;28;20674;-63
2022/10/18 08:48:30;;;;;;;7.65;4.93;;;18.20;82.50;;;;;;5075341;28;20060;-63
2022/10/18 08:50:57;;;;;;;7.43;4.95;;;18.20;81.60;;;;;;5074094;28;20051;-63
2022/10/18 08:53:27;;;;;;;10.05;4.47;;;18.30;81.90;;;;;;5074733;28;20499;-63
2022/10/18 08:56:13;;;;;;;6.85;4.82;;;18.40;81.80;;;;;;5075827;28;20497;-63
2022/10/18 08:58:41;;;;;;;6.55;4.85;;;18.40;81.20;;;;;;5073167;28;20055;-61
2022/10/18 09:01:25;;;;;;;6.30;4.38;;;18.50;81.50;;;;;;5075021;28;20114;-62
2022/10/18 09:04:17;;;;;;;4.45;3.97;;;18.60;81.40;;;;;;5075832;28;20495;-63
2022/10/18 09:07:01;;;;;;;4.50;3.72;;;18.60;80.80;;;;;;5076642;28;20515;-63
2022/10/18 09:09:30;;;;;;;6.03;4.10;;;18.70;81.30;;;;;;5077242;28;20054;-63
2022/10/18 09:12:26;;;;;;;6.75;4.20;;;18.80;81.10;;;;;;5075913;28;20044;-63
2022/10/18 09:15:28;;;;;;;9.23;4.25;;;18.80;80.90;;;;;;5075497;28;20028;-63
2022/10/18 09:18:21;;;;;;;4.25;3.30;;;18.90;80.80;;;;;;5075297;28;20492;-63
2022/10/18 09:21:03;;;;;;;6.50;3.60;;;19.00;80.80;;;;;;5075774;28;20047;-63
2022/10/18 09:23:48;;;;;;;5.95;3.95;;;19.10;81.10;;;;;;5074973;28;20040;-63
2022/10/18 09:26:18;;;;;;;5.80;3.53;;;19.20;80.50;;;;;;5076133;28;20074;-62
2022/10/18 09:29:08;;;;;;;5.32;3.42;;;19.30;80.40;;;;;;5077609;28;20036;-63
2022/10/18 09:32:09;;;;;;;4.88;3.33;;;19.40;80.20;;;;;;5075684;28;20040;-63
2022/10/18 09:34:45;;;;;;;4.00;3.33;;;19.50;80.00;;;;;;5077899;28;20028;-63
2022/10/18 09:37:14;;;;;;;6.90;3.60;;;19.60;79.80;;;;;;5080845;28;20093;-63
2022/10/18 09:39:41;;;;;;;6.05;3.53;;;19.70;79.70;;;;;;5079821;28;20032;-63
2022/10/18 09:42:29;;;;;;;6.88;3.53;;;19.70;79.60;;;;;;5078580;28;20423;-63
2022/10/18 09:45:06;;;;;;;4.47;3.30;;;19.80;79.10;;;;;;5079798;28;20170;-63
2022/10/18 09:47:45;;;;;;;3.38;3.08;;;19.90;78.70;;;;;;5078998;28;20031;-63
2022/10/18 09:50:20;;;;;;;4.10;3.22;;;20.00;78.80;;;;;;5076622;28;20040;-63
2022/10/18 09:53:08;;;;;;;7.28;3.35;;;20.10;78.80;;;;;;5079561;28;20040;-62
2022/10/18 09:55:41;;;;;;;3.85;2.78;;;20.20;78.40;;;;;;5079271;28;20078;-63
2022/10/18 09:58:10;;;;;;;6.40;3.03;;;20.30;78.00;;;;;;5077340;28;20135;-63
2022/10/18 10:00:46;;;;;;;7.18;3.28;;;20.40;77.80;;;;;;5077954;28;20032;-63
2022/10/18 10:03:13;;;;;;;5.40;3.10;;;20.50;77.00;;;;;;5077769;28;20502;-63
2022/10/18 10:05:39;;;;;;;5.75;3.10;;;20.50;78.30;;;;;;5079133;28;20503;-62
2022/10/18 10:08:05;;;;;;;5.03;3.25;;;20.70;77.20;;;;;;5080404;28;20047;-61
2022/10/18 10:10:31;;;;;;;4.45;2.60;;;20.70;76.50;;;;;;5077834;28;20032;-62
2022/10/18 10:13:38;;;;;;;5.75;3.10;;;20.80;75.60;;;;;;5079668;28;20043;-62
2022/10/18 10:16:04;;;;;;;5.82;2.95;;;20.90;75.40;;;;;;5056938;28;20032;-63
2022/10/18 10:18:38;;;;;;;4.55;2.97;;;21.00;76.00;;;;;;5075060;28;20494;-63
2022/10/18 10:21:13;;;;;;;4.38;2.65;;;21.00;75.30;;;;;;5079873;28;20044;-63
2022/10/18 10:23:59;;;;;;;2.50;2.30;;;21.10;73.90;;;;;;5080056;28;20067;-63
2022/10/18 10:26:33;;;;;;;5.25;2.33;;;21.20;71.80;;;;;;5077024;28;20075;-63
2022/10/18 10:28:59;;;;;;;3.60;2.10;;;21.30;73.10;;;;;;5080700;28;20059;-63
2022/10/18 10:31:31;;;;;;;4.80;2.38;;;21.30;74.00;;;;;;5081293;28;20032;-63
2022/10/18 10:34:01;;;;;;;3.28;1.95;;;21.40;73.90;;;;;;5080574;28;20060;-63
2022/10/18 10:36:27;;;;;;;4.65;2.20;;;21.40;72.90;;;;;;5071856;28;20560;-64
2022/10/18 10:39:11;;;;;;;9.98;2.53;;;21.50;73.00;;;;;;5076392;28;20028;-62
2022/10/18 10:41:38;;;;;;;2.75;2.40;;;21.60;72.00;;;;;;5078810;28;20065;-63
2022/10/18 10:44:14;;;;;;;3.58;2.22;;;21.70;72.00;;;;;;5076977;28;20044;-63
2022/10/18 10:46:39;;;;;;;3.70;1.92;;;21.80;71.30;;;;;;5074813;28;20040;-63
2022/10/18 10:49:05;;;;;;;2.78;2.17;;;21.90;72.10;;;;;;5077216;28;20117;-62
2022/10/18 10:51:37;;;;;;;5.22;2.10;;;22.00;71.80;;;;;;5080978;28;20047;-62
2022/10/18 10:54:12;;;;;;;2.90;2.22;;;22.00;70.40;;;;;;5074863;28;20037;-63
2022/10/18 10:57:03;;;;;;;2.63;2.00;;;22.10;70.60;;;;;;5078489;28;20038;-63
2022/10/18 10:59:47;;;;;;;3.42;2.10;;;22.30;69.30;;;;;;5078196;28;20037;-64
2022/10/18 11:02:13;;;;;;;4.80;2.30;;;22.30;69.00;;;;;;5075747;28;21481;-63
2022/10/18 11:04:41;;;;;;;2.97;2.30;;;22.40;70.20;;;;;;5077921;28;20059;-63
2022/10/18 11:07:30;;;;;;;2.72;1.92;;;22.50;69.30;;;;;;5076832;28;20076;-63
2022/10/18 11:10:10;;;;;;;2.38;2.10;;;22.50;68.80;;;;;;5079226;28;20481;-63
2022/10/18 11:12:37;;;;;;;3.72;2.22;;;22.60;67.40;;;;;;5076036;28;20510;-63
2022/10/18 11:15:09;;;;;;;4.25;2.10;;;22.60;68.30;;;;;;5078883;28;20065;-63
2022/10/18 11:18:28;;;;;;;5.05;2.28;;;22.70;67.90;;;;;;5076615;28;20032;-63
2022/10/18 11:21:10;;;;;;;2.25;1.90;;;22.70;66.80;;;;;;5053636;28;20033;-64
2022/10/18 11:23:38;;;;;;;2.45;1.90;;;22.80;67.50;;;;;;5074281;28;20039;-64
2022/10/18 11:26:06;;;;;;;3.08;1.75;;;22.80;68.30;;;;;;5076190;28;20123;-63
2022/10/18 11:28:35;;;;;;;6.28;1.75;;;22.80;67.30;;;;;;5074437;28;20164;-64
2022/10/18 11:31:12;;;;;;;1.95;1.55;;;22.90;67.50;;;;;;5076813;28;20041;-63
2022/10/18 11:34:04;;;;;;;5.35;2.00;;;23.00;66.70;;;;;;5077436;28;20062;-63
2022/10/18 11:36:57;;;;;;;4.30;2.00;;;23.10;65.90;;;;;;5076425;28;20054;-64
2022/10/18 11:39:52;;;;;;;4.10;2.10;;;23.20;66.50;;;;;;5075077;28;20032;-64
2022/10/18 11:42:20;;;;;;;4.88;2.00;;;23.20;65.20;;;;;;5074882;28;20056;-64
2022/10/18 11:45:07;;;;;;;4.90;1.80;;;23.30;66.00;;;;;;5074804;28;20083;-64
2022/10/18 11:47:38;;;;;;;4.63;1.90;;;23.30;65.60;;;;;;5074409;28;20514;-64
2022/10/18 11:50:10;;;;;;;3.97;1.92;;;23.30;66.10;;;;;;5073171;28;20036;-63
2022/10/18 11:52:55;;;;;;;4.82;1.80;;;23.30;65.60;;;;;;5075857;28;20043;-64
2022/10/18 11:55:29;;;;;;;5.95;1.90;;;23.40;65.20;;;;;;5073576;28;20036;-61
2022/10/18 11:58:05;;;;;;;4.13;1.83;;;23.40;65.20;;;;;;5075378;28;20042;-64
2022/10/18 12:00:47;;;;;;;6.88;1.80;;;23.40;64.60;;;;;;5071236;28;20036;-62
2022/10/18 12:03:33;;;;;;;2.92;1.50;;;23.50;63.80;;;;;;5074869;28;20044;-63
2022/10/18 12:06:04;;;;;;;7.43;2.17;;;23.50;64.30;;;;;;5074119;28;20090;-62
2022/10/18 12:08:51;;;;;;;4.05;1.60;;;23.50;65.00;;;;;;5073901;28;20025;-64
2022/10/18 12:11:22;;;;;;;4.43;1.88;;;23.50;64.30;;;;;;5074326;28;20043;-63
2022/10/18 12:13:52;;;;;;;6.38;1.70;;;23.60;64.80;;;;;;5072906;28;20032;-64
2022/10/18 12:16:21;;;;;;;3.65;1.80;;;23.60;64.10;;;;;;5075679;28;20077;-63
2022/10/18 12:19:00;;;;;;;5.85;1.73;;;23.60;64.50;;;;;;5072982;28;20550;-63
2022/10/18 12:21:30;;;;;;;2.92;1.40;;;23.60;63.90;;;;;;5072352;28;20908;-63
2022/10/18 12:24:00;;;;;;;3.63;1.90;;;23.60;63.90;;;;;;5076856;28;20047;-63
2022/10/18 12:26:28;;;;;;;3.97;1.73;;;23.60;63.70;;;;;;5076353;28;20869;-63
2022/10/18 12:29:11;;;;;;;5.32;2.50;;;23.70;64.20;;;;;;5074263;28;20037;-62
2022/10/18 12:31:57;;;;;;;4.90;1.67;;;23.70;63.60;;;;;;5077550;28;20384;-64
2022/10/18 12:34:26;;;;;;;5.05;1.80;;;23.70;62.80;;;;;;5075790;28;20589;-62
2022/10/18 12:37:03;;;;;;;3.47;1.80;;;23.70;64.10;;;;;;5074120;28;20032;-63
2022/10/18 12:39:33;;;;;;;4.35;1.92;;;23.70;63.30;;;;;;5073460;28;20104;-63
2022/10/18 12:41:59;;;;;;;4.63;1.50;;;23.70;63.80;;;;;;5074293;28;20052;-64
2022/10/18 12:44:30;;;;;;;2.95;1.90;;;23.80;64.10;;;;;;5071556;28;20051;-63
2022/10/18 12:47:01;;;;;;;4.63;1.77;;;23.80;63.40;;;;;;5075693;28;20037;-62
2022/10/18 12:49:28;;;;;;;4.93;2.20;;;23.80;63.50;;;;;;5075785;28;20485;-64
2022/10/18 12:51:58;;;;;;;6.75;1.80;;;23.80;64.00;;;;;;5071437;28;20222;-62
2022/10/18 12:54:35;;;;;;;3.58;1.88;;;23.80;64.00;;;;;;5073926;28;20575;-62
2022/10/18 12:57:15;;;;;;;7.55;1.88;;;23.90;63.30;;;;;;5075042;28;20533;-63
2022/10/18 12:59:41;;;;;;;5.28;2.03;;;23.90;63.60;;;;;;5074905;28;20184;-63
2022/10/18 13:02:17;;;;;;;5.22;1.92;;;23.90;63.70;;;;;;5074926;28;20527;-63